KBOI/BOI METAR and TAF weather

Enter ICAO airport designator
Station Type Date Time Source
KBOI METAR 2020/09/23 01:53 UTC NOAA

KBOI 230153Z 00000KT 5SM HZ CLR 24/03 A2997 RMK AO2 SLP129 T02390033


Station Type Date Time Source
KBOI Decoded METAR 2020/09/23 01:53 UTC NOAA

BOISE AIR TERMINAL, ID, United States (KBOI) 43-34N 116-14W 875M
Sep 22, 2020 - 09:53 PM EDT / 2020.09.23 0153 UTC
Wind: Calm:0
Visibility: 5 mile(s):0
Sky conditions: clear
Weather: haze
Temperature: 75.0 F (23.9 C)
Dew Point: 37.9 F (3.3 C)
Relative Humidity: 26%
Pressure (altimeter): 29.97 in. Hg (1014 hPa)
ob: KBOI 230153Z 00000KT 5SM HZ CLR 24/03 A2997 RMK AO2 SLP129 T02390033
cycle: 2

Station Type Date Time Source
KBOI TAF 2020/09/23 01:52 UTC NOAA

TAF
AMD KBOI 230050Z 2301/2324 02008KT 5SM HZ SCT150
FM230300 14006KT 5SM HZ BKN200
FM232000 VRB06KT 5SM HZ SCT200

Example: see airport list